aviador You're here:

GMMW Decoded Metar

ARWI in MOROCCO
Report Time2017-11-23 22:00:00
UTC Time2017-11-23 22:23:00
Flight Rules vfr VFR
Wind240° at 04 kt
W.Decomp.*RWY 26: 3.8 kt HW 1.3 kt LCW
W.Rank240° ranks 8
Current wind is below 240° avg. (4.7)
Visibility9999 m
Phenomena:N/A
Clouds:N/A
Expected CloudBase > 3,200 ft AGL from Temp-Dew spread
CeilingNone
Temp11°C (ISA -3)
Dew Point03°C (58% RH)
AAT8.1°C
QNH1021 hPa
Density Alt69 ft
Elevation574 ft
Report Wrong Elevation
Raw Report
GMMW 232200Z 24004KT CAVOK 11/03 Q1021 NOSIG=

Extra information for GMMW:More info

Metar Taf Metar & Taf Last 4 Metars F.Rules Stats Wind Profile Meteogram Temp Stats Airport Information Weather charts Add Link Nearby VenuesMetar ALERT Operation Metar Decoded Social comments